Time;durP1;ratioP1;P1;durP2;ratioP2;P2;SDS_P1;SDS_P2;PMS_P1;PMS_P2;Temp;Humidity;BMP_temperature;BMP_pressure;BME280_temperature;BME280_humidity;BME280_pressure;Samples;Min_cycle;Max_cycle;Signal;HPM_P1;HPM_P2
2022/01/19 00:00:33;;;;;;;2.63;1.60;;;;;;;;;;5042089;28;20490;-58
2022/01/19 00:02:58;;;;;;;2.53;1.23;;;;;;;;;;5042318;28;20021;-59
2022/01/19 00:05:24;;;;;;;2.23;1.10;;;;;;;;;;5041904;28;20708;-57
2022/01/19 00:07:49;;;;;;;2.15;1.35;;;;;;;;;;5038540;28;20458;-58
2022/01/19 00:10:19;;;;;;;2.23;1.27;;;;;;;;;;5022384;28;20087;-57
2022/01/19 00:12:45;;;;;;;3.03;1.30;;;;;;;;;;5022172;28;20264;-60
2022/01/19 00:15:10;;;;;;;2.80;1.33;;;;;;;;;;5021846;28;20064;-57
2022/01/19 00:17:36;;;;;;;2.38;1.25;;;;;;;;;;5021943;28;20484;-61
2022/01/19 00:20:01;;;;;;;2.90;1.40;;;;;;;;;;5022086;28;20077;-56
2022/01/19 00:22:27;;;;;;;3.45;1.40;;;;;;;;;;5022229;28;20287;-60
2022/01/19 00:24:52;;;;;;;2.55;1.35;;;;;;;;;;5021899;28;20029;-57
2022/01/19 00:27:17;;;;;;;2.40;1.30;;;;;;;;;;5022303;28;20024;-59
2022/01/19 00:29:43;;;;;;;2.47;1.27;;;;;;;;;;5005736;28;20264;-58
2022/01/19 00:32:08;;;;;;;2.10;1.30;;;;;;;;;;5022308;28;20264;-57
2022/01/19 00:34:33;;;;;;;2.20;1.30;;;;;;;;;;5021829;28;20292;-57
2022/01/19 00:36:58;;;;;;;2.70;1.37;;;;;;;;;;5022602;28;20371;-58
2022/01/19 00:39:29;;;;;;;2.40;1.33;;;;;;;;;;5027174;28;20503;-57
2022/01/19 00:41:55;;;;;;;2.50;1.10;;;;;;;;;;5028823;28;20029;-62
2022/01/19 00:44:20;;;;;;;2.92;1.23;;;;;;;;;;5028610;28;20029;-57
2022/01/19 00:46:45;;;;;;;2.58;1.30;;;;;;;;;;5028479;28;20041;-57
2022/01/19 00:49:11;;;;;;;2.90;1.50;;;;;;;;;;5014651;28;20030;-57
2022/01/19 00:51:36;;;;;;;2.20;1.07;;;;;;;;;;5026673;28;20385;-60
2022/01/19 00:54:01;;;;;;;2.90;1.13;;;;;;;;;;5028316;28;20263;-59
2022/01/19 00:56:27;;;;;;;2.57;1.13;;;;;;;;;;5028559;28;20029;-60
2022/01/19 00:58:52;;;;;;;2.50;1.38;;;;;;;;;;5028561;28;20272;-60
2022/01/19 01:01:17;;;;;;;2.97;1.65;;;;;;;;;;5028176;28;20029;-62
2022/01/19 01:03:43;;;;;;;2.53;1.30;;;;;;;;;;5031218;28;20308;-60
2022/01/19 01:06:08;;;;;;;2.77;1.30;;;;;;;;;;5050993;28;20287;-58
2022/01/19 01:08:33;;;;;;;3.10;1.30;;;;;;;;;;5058297;28;20028;-62
2022/01/19 01:10:58;;;;;;;2.27;1.40;;;;;;;;;;5057348;28;20088;-62
2022/01/19 01:18:21;;;;;;;2.25;1.08;;;;;;;;;;5058375;28;20021;-59
2022/01/19 01:20:49;;;;;;;2.38;1.25;;;;;;;;;;5055426;28;20048;-65
2022/01/19 01:23:15;;;;;;;2.35;1.00;;;;;;;;;;5029816;28;20025;-58
2022/01/19 01:25:40;;;;;;;2.40;1.13;;;;;;;;;;5047960;28;20036;-58
2022/01/19 01:28:05;;;;;;;3.92;1.63;;;;;;;;;;5047821;28;20479;-60
2022/01/19 01:30:31;;;;;;;2.80;1.38;;;;;;;;;;5048041;28;20162;-64
2022/01/19 01:32:56;;;;;;;2.33;1.00;;;;;;;;;;5048356;28;20525;-66
2022/01/19 01:35:21;;;;;;;1.97;1.07;;;;;;;;;;5048871;28;20531;-66
2022/01/19 01:37:46;;;;;;;2.47;1.10;;;;;;;;;;5048631;28;20505;-65
2022/01/19 01:40:15;;;;;;;1.97;1.10;;;;;;;;;;5048721;28;20025;-59
2022/01/19 01:42:40;;;;;;;1.98;1.10;;;;;;;;;;5048069;28;20282;-62
2022/01/19 01:45:10;;;;;;;1.63;0.93;;;;;;;;;;5029822;28;20021;-63
2022/01/19 01:47:40;;;;;;;2.03;1.08;;;;;;;;;;5047657;28;20426;-67
2022/01/19 01:55:15;;;;;;;2.60;1.20;;;;;;;;;;5029398;28;20048;-58
2022/01/19 01:57:41;;;;;;;2.85;1.20;;;;;;;;;;5044368;28;20383;-58
2022/01/19 02:00:07;;;;;;;2.28;1.05;;;;;;;;;;5026545;28;20025;-56
2022/01/19 02:02:32;;;;;;;2.60;1.10;;;;;;;;;;5044355;28;20539;-57
2022/01/19 02:04:57;;;;;;;2.33;1.00;;;;;;;;;;5044213;28;20060;-57
2022/01/19 02:07:34;;;;;;;1.93;1.30;;;;;;;;;;5044125;28;20263;-58
2022/01/19 02:10:00;;;;;;;2.20;1.30;;;;;;;;;;5013419;28;20264;-56
2022/01/19 02:23:28;;;;;;;1.70;1.10;;;;;;;;;;5044255;28;20625;-60
2022/01/19 02:25:55;;;;;;;2.22;1.23;;;;;;;;;;5044031;28;20131;-58
2022/01/19 02:31:45;;;;;;;2.97;1.23;;;;;;;;;;5037250;28;20036;-59
2022/01/19 02:41:58;;;;;;;2.20;1.13;;;;;;;;;;5043799;28;20102;-58
2022/01/19 02:46:33;;;;;;;2.13;1.13;;;;;;;;;;5043479;28;20021;-57
2022/01/19 02:49:46;;;;;;;2.05;1.08;;;;;;;;;;5026821;28;20037;-62
2022/01/19 02:52:12;;;;;;;3.90;1.15;;;;;;;;;;5043396;28;20021;-62
2022/01/19 02:54:38;;;;;;;2.53;1.25;;;;;;;;;;5043283;28;20048;-60
2022/01/19 02:57:04;;;;;;;2.17;1.00;;;;;;;;;;5043541;28;20093;-57
2022/01/19 02:59:59;;;;;;;2.63;0.98;;;;;;;;;;5043097;28;20017;-60
2022/01/19 03:10:35;;;;;;;3.92;1.30;;;;;;;;;;5003577;28;20550;-57
2022/01/19 03:13:00;;;;;;;2.50;1.10;;;;;;;;;;5028395;28;20028;-63
2022/01/19 03:15:26;;;;;;;1.80;1.00;;;;;;;;;;5042974;28;20877;-57
2022/01/19 03:17:56;;;;;;;2.33;1.17;;;;;;;;;;5042970;28;20528;-61
2022/01/19 03:20:21;;;;;;;2.22;1.25;;;;;;;;;;5043197;28;20104;-63
2022/01/19 03:22:57;;;;;;;2.57;1.20;;;;;;;;;;5024959;28;20494;-58
2022/01/19 03:25:22;;;;;;;2.03;1.08;;;;;;;;;;5042429;28;21071;-57
2022/01/19 03:27:48;;;;;;;2.92;1.20;;;;;;;;;;5037408;28;20534;-58
2022/01/19 03:30:16;;;;;;;2.08;1.10;;;;;;;;;;5003245;28;20129;-60
2022/01/19 03:32:41;;;;;;;2.45;1.10;;;;;;;;;;5022946;28;20469;-57
2022/01/19 03:35:07;;;;;;;1.98;0.90;;;;;;;;;;5042784;28;20063;-56
2022/01/19 03:37:32;;;;;;;2.65;1.13;;;;;;;;;;5042462;28;20032;-57
2022/01/19 03:39:58;;;;;;;2.13;1.00;;;;;;;;;;5042555;28;20017;-60
2022/01/19 03:42:23;;;;;;;3.13;1.33;;;;;;;;;;5042511;28;20329;-59
2022/01/19 03:44:48;;;;;;;2.50;1.00;;;;;;;;;;5042725;28;20769;-60
2022/01/19 03:47:14;;;;;;;2.63;1.23;;;;;;;;;;5043289;28;20499;-58
2022/01/19 03:49:39;;;;;;;2.03;1.00;;;;;;;;;;5007292;28;20261;-59
2022/01/19 03:52:04;;;;;;;2.10;1.13;;;;;;;;;;5007564;28;20010;-58
2022/01/19 03:54:31;;;;;;;2.38;0.98;;;;;;;;;;5022579;28;20279;-66
2022/01/19 03:56:56;;;;;;;2.85;1.23;;;;;;;;;;5034231;28;20107;-57
2022/01/19 03:59:21;;;;;;;3.00;1.13;;;;;;;;;;5042594;28;20440;-59
2022/01/19 04:01:47;;;;;;;2.28;0.98;;;;;;;;;;5042062;28;20280;-57
2022/01/19 04:06:54;;;;;;;2.10;1.20;;;;;;;;;;5042236;28;20411;-56
2022/01/19 04:09:19;;;;;;;1.83;0.93;;;;;;;;;;5012754;28;20332;-57
2022/01/19 04:11:44;;;;;;;2.13;1.13;;;;;;;;;;5004511;28;20511;-59
2022/01/19 04:16:35;;;;;;;2.77;1.30;;;;;;;;;;5022477;28;20326;-58
2022/01/19 04:19:44;;;;;;;2.17;0.95;;;;;;;;;;5034375;28;20390;-58
2022/01/19 04:21:49;;;;;;;2.65;1.25;;;;;;;;;;5033322;28;20703;-61
2022/01/19 04:24:14;;;;;;;2.22;1.10;;;;;;;;;;5041905;28;20096;-57
2022/01/19 04:26:39;;;;;;;3.93;1.10;;;;;;;;;;5028415;28;20511;-58
2022/01/19 04:29:05;;;;;;;3.58;1.02;;;;;;;;;;5001454;28;20756;-58
2022/01/19 04:31:30;;;;;;;2.08;0.82;;;;;;;;;;5001519;28;20055;-64
2022/01/19 04:34:00;;;;;;;1.90;0.80;;;;;;;;;;5006125;28;20021;-58
2022/01/19 04:44:57;;;;;;;2.13;0.95;;;;;;;;;;5015069;28;20612;-59
2022/01/19 04:47:45;;;;;;;2.03;1.10;;;;;;;;;;5005980;28;20073;-59
2022/01/19 05:03:47;;;;;;;1.98;1.00;;;;;;;;;;5041715;28;20466;-61
2022/01/19 05:06:10;;;;;;;2.25;1.17;;;;;;;;;;5042501;28;20045;-59
2022/01/19 05:13:56;;;;;;;1.70;0.90;;;;;;;;;;5001940;28;20040;-60
2022/01/19 05:16:22;;;;;;;1.40;0.90;;;;;;;;;;5001860;28;20045;-62
2022/01/19 05:18:48;;;;;;;2.47;1.10;;;;;;;;;;5000622;28;20369;-61
2022/01/19 05:21:13;;;;;;;2.08;0.95;;;;;;;;;;5001888;28;20076;-61
2022/01/19 05:23:38;;;;;;;1.95;1.00;;;;;;;;;;5001796;28;20128;-60
2022/01/19 05:26:04;;;;;;;1.90;1.13;;;;;;;;;;5003302;28;20026;-61
2022/01/19 05:28:29;;;;;;;2.63;1.00;;;;;;;;;;5012883;28;20256;-61
2022/01/19 05:30:54;;;;;;;1.80;0.90;;;;;;;;;;5025148;28;20283;-61
2022/01/19 05:33:19;;;;;;;1.70;1.00;;;;;;;;;;5010470;28;20499;-61
2022/01/19 05:35:45;;;;;;;2.47;1.37;;;;;;;;;;5005388;28;20496;-60
2022/01/19 05:38:10;;;;;;;1.97;1.00;;;;;;;;;;5007175;28;20334;-61
2022/01/19 05:40:36;;;;;;;1.70;1.03;;;;;;;;;;5016624;28;20280;-60
2022/01/19 05:43:01;;;;;;;2.28;1.00;;;;;;;;;;5007176;28;20267;-60
2022/01/19 05:45:26;;;;;;;1.65;1.00;;;;;;;;;;5005305;28;20032;-62
2022/01/19 05:47:52;;;;;;;1.65;1.05;;;;;;;;;;5003415;28;20021;-62
2022/01/19 05:50:17;;;;;;;1.75;1.00;;;;;;;;;;5016099;28;20013;-62
2022/01/19 05:52:42;;;;;;;3.10;0.90;;;;;;;;;;5026172;28;20899;-61
2022/01/19 05:55:08;;;;;;;2.30;0.93;;;;;;;;;;5025326;28;20570;-61
2022/01/19 05:57:33;;;;;;;2.08;1.25;;;;;;;;;;5025328;28;20029;-62
2022/01/19 05:59:58;;;;;;;2.53;0.93;;;;;;;;;;5043003;28;20530;-61
2022/01/19 06:02:24;;;;;;;1.88;1.15;;;;;;;;;;5026374;28;20391;-61
2022/01/19 06:04:49;;;;;;;1.95;1.00;;;;;;;;;;5043756;28;20519;-62
2022/01/19 06:07:15;;;;;;;1.92;0.90;;;;;;;;;;5017261;28;20420;-62
2022/01/19 06:12:09;;;;;;;2.03;0.90;;;;;;;;;;5013620;28;20017;-61
2022/01/19 06:14:35;;;;;;;2.05;1.13;;;;;;;;;;5044087;28;20017;-63
2022/01/19 06:17:00;;;;;;;2.10;1.05;;;;;;;;;;5026050;28;20108;-61
2022/01/19 06:19:25;;;;;;;2.50;0.90;;;;;;;;;;5043739;28;20067;-62
2022/01/19 06:21:51;;;;;;;2.65;1.20;;;;;;;;;;5043920;28;20601;-61
2022/01/19 06:24:16;;;;;;;1.88;1.10;;;;;;;;;;5044030;28;20550;-62
2022/01/19 06:26:41;;;;;;;2.33;1.25;;;;;;;;;;5021839;28;20040;-61
2022/01/19 06:29:07;;;;;;;2.13;1.00;;;;;;;;;;5023983;28;20018;-61
2022/01/19 06:31:32;;;;;;;3.57;1.20;;;;;;;;;;5008396;28;20048;-65
2022/01/19 06:33:57;;;;;;;2.37;1.00;;;;;;;;;;5023464;28;20594;-63
2022/01/19 06:36:22;;;;;;;2.30;1.00;;;;;;;;;;5023598;28;20306;-60
2022/01/19 06:38:48;;;;;;;1.57;0.80;;;;;;;;;;5020430;28;20804;-61
2022/01/19 06:41:13;;;;;;;1.87;1.30;;;;;;;;;;5005084;28;20631;-58
2022/01/19 06:43:38;;;;;;;1.90;0.93;;;;;;;;;;5005156;28;20304;-66
2022/01/19 06:46:03;;;;;;;1.77;0.93;;;;;;;;;;5006346;28;20037;-60
2022/01/19 06:48:28;;;;;;;1.95;0.95;;;;;;;;;;5003270;28;20271;-61
2022/01/19 06:50:54;;;;;;;2.33;0.80;;;;;;;;;;5007446;28;20488;-62
2022/01/19 06:53:20;;;;;;;2.07;1.07;;;;;;;;;;4988734;28;20273;-67
2022/01/19 06:55:46;;;;;;;2.40;1.08;;;;;;;;;;5021061;28;20506;-68
2022/01/19 06:58:11;;;;;;;1.90;1.10;;;;;;;;;;5004200;28;20614;-64
2022/01/19 07:00:37;;;;;;;2.88;1.13;;;;;;;;;;5004848;28;20377;-60
2022/01/19 07:03:02;;;;;;;2.33;1.08;;;;;;;;;;5011164;28;20044;-62
2022/01/19 07:05:27;;;;;;;2.50;1.20;;;;;;;;;;5035845;28;20085;-65
2022/01/19 07:07:56;;;;;;;2.23;1.10;;;;;;;;;;5040865;28;20259;-61
2022/01/19 07:10:22;;;;;;;2.60;1.10;;;;;;;;;;5029180;28;20374;-61
2022/01/19 07:12:47;;;;;;;2.00;1.15;;;;;;;;;;5042937;28;20108;-63
2022/01/19 07:15:12;;;;;;;3.07;1.30;;;;;;;;;;5037781;28;20037;-64
2022/01/19 07:17:37;;;;;;;2.93;1.20;;;;;;;;;;5039511;28;20453;-66
2022/01/19 07:20:03;;;;;;;3.08;1.25;;;;;;;;;;5040326;28;20275;-62
2022/01/19 07:22:28;;;;;;;1.70;1.05;;;;;;;;;;5030716;28;20461;-66
2022/01/19 07:24:53;;;;;;;2.10;0.90;;;;;;;;;;5042648;28;20149;-64
2022/01/19 07:27:19;;;;;;;2.63;1.10;;;;;;;;;;5022509;28;20035;-62
2022/01/19 07:29:44;;;;;;;3.47;1.17;;;;;;;;;;5015545;28;20264;-60
2022/01/19 07:32:11;;;;;;;3.70;1.40;;;;;;;;;;5024887;28;20031;-60
2022/01/19 07:34:37;;;;;;;4.47;1.70;;;;;;;;;;5031735;28;20025;-61
2022/01/19 07:37:03;;;;;;;2.00;1.10;;;;;;;;;;5029665;28;20036;-62
2022/01/19 07:39:28;;;;;;;2.40;1.30;;;;;;;;;;5023213;28;20033;-60
2022/01/19 07:41:55;;;;;;;3.07;1.10;;;;;;;;;;5023387;28;20566;-62
2022/01/19 07:44:20;;;;;;;3.72;1.10;;;;;;;;;;5042187;28;20646;-60
2022/01/19 07:46:46;;;;;;;2.25;1.25;;;;;;;;;;5042559;28;20035;-61
2022/01/19 07:49:11;;;;;;;2.80;1.00;;;;;;;;;;5041296;28;20674;-63
2022/01/19 07:51:37;;;;;;;2.97;1.40;;;;;;;;;;5042297;28;20033;-63
2022/01/19 07:54:02;;;;;;;2.53;1.42;;;;;;;;;;5041821;28;20279;-62
2022/01/19 07:56:27;;;;;;;2.22;1.20;;;;;;;;;;5041739;28;20037;-62
2022/01/19 07:58:52;;;;;;;3.30;1.20;;;;;;;;;;5041773;28;20431;-62
2022/01/19 08:01:19;;;;;;;2.73;1.20;;;;;;;;;;5031334;28;20367;-62
2022/01/19 08:03:44;;;;;;;2.55;1.30;;;;;;;;;;5037679;28;20284;-61
2022/01/19 08:06:09;;;;;;;2.50;1.10;;;;;;;;;;5041426;28;20032;-61
2022/01/19 08:08:35;;;;;;;2.10;1.10;;;;;;;;;;5035715;28;20597;-61
2022/01/19 08:11:01;;;;;;;2.38;1.20;;;;;;;;;;5039566;28;20282;-62
2022/01/19 08:13:26;;;;;;;2.80;1.30;;;;;;;;;;5041918;28;20414;-62
2022/01/19 08:15:51;;;;;;;3.33;1.20;;;;;;;;;;5041088;28;20105;-61
2022/01/19 08:18:16;;;;;;;3.00;1.30;;;;;;;;;;5041422;28;20032;-63
2022/01/19 08:20:43;;;;;;;2.72;1.20;;;;;;;;;;5041613;28;20052;-63
2022/01/19 08:23:08;;;;;;;3.28;1.55;;;;;;;;;;5041285;28;20063;-62
2022/01/19 08:25:34;;;;;;;2.60;1.30;;;;;;;;;;5041645;28;20586;-62
2022/01/19 08:27:59;;;;;;;3.17;1.30;;;;;;;;;;5041264;28;21089;-63
2022/01/19 08:30:24;;;;;;;1.57;1.10;;;;;;;;;;5041520;28;20048;-62
2022/01/19 08:32:49;;;;;;;2.77;1.50;;;;;;;;;;5041519;28;20267;-62
2022/01/19 08:35:15;;;;;;;2.30;1.40;;;;;;;;;;5041180;28;20105;-62
2022/01/19 08:37:40;;;;;;;2.35;1.20;;;;;;;;;;5041615;28;20574;-62
2022/01/19 08:40:06;;;;;;;2.13;1.20;;;;;;;;;;5041485;28;20831;-62
2022/01/19 08:42:33;;;;;;;2.15;1.27;;;;;;;;;;5041410;28;20033;-62
2022/01/19 08:45:04;;;;;;;2.83;1.60;;;;;;;;;;5041761;28;20359;-64
2022/01/19 08:47:29;;;;;;;2.60;1.20;;;;;;;;;;5024410;28;20055;-61
2022/01/19 08:49:55;;;;;;;4.03;1.35;;;;;;;;;;5041503;28;20112;-61
2022/01/19 08:52:20;;;;;;;2.88;1.27;;;;;;;;;;5041209;28;20410;-61
2022/01/19 08:54:47;;;;;;;2.83;1.33;;;;;;;;;;5041401;28;20544;-62
2022/01/19 08:57:12;;;;;;;2.42;1.25;;;;;;;;;;5041383;28;20810;-62
2022/01/19 08:59:37;;;;;;;3.63;1.23;;;;;;;;;;5042570;28;20029;-60
2022/01/19 09:02:03;;;;;;;3.00;1.40;;;;;;;;;;5044953;28;20107;-63
2022/01/19 09:04:28;;;;;;;2.90;1.50;;;;;;;;;;5044965;28;20279;-64
2022/01/19 09:06:54;;;;;;;2.13;1.20;;;;;;;;;;5045223;28;20048;-61
2022/01/19 09:09:19;;;;;;;2.23;1.40;;;;;;;;;;5034935;28;20191;-61
2022/01/19 09:11:44;;;;;;;2.60;1.20;;;;;;;;;;5021557;28;20760;-63
2022/01/19 09:14:10;;;;;;;2.30;1.30;;;;;;;;;;5045264;28;20024;-63
2022/01/19 09:16:36;;;;;;;1.98;1.13;;;;;;;;;;5044949;28;21221;-62
2022/01/19 09:19:01;;;;;;;2.63;1.27;;;;;;;;;;5045126;28;20016;-64
2022/01/19 09:21:26;;;;;;;3.20;1.50;;;;;;;;;;5044897;28;20082;-63
2022/01/19 09:23:52;;;;;;;4.27;1.80;;;;;;;;;;5029166;28;20513;-65
2022/01/19 09:26:17;;;;;;;3.25;1.60;;;;;;;;;;5042944;28;20791;-62
2022/01/19 09:28:42;;;;;;;2.25;1.42;;;;;;;;;;5045105;28;20024;-67
2022/01/19 09:31:11;;;;;;;2.77;1.40;;;;;;;;;;5045318;28;20052;-63
2022/01/19 09:33:37;;;;;;;3.13;1.23;;;;;;;;;;5045630;28;20816;-64
2022/01/19 09:38:28;;;;;;;2.60;1.35;;;;;;;;;;5044994;28;20021;-63
2022/01/19 09:40:54;;;;;;;2.20;1.35;;;;;;;;;;5030760;28;20545;-65
2022/01/19 09:43:22;;;;;;;2.92;1.38;;;;;;;;;;5026064;28;20025;-64
2022/01/19 09:45:57;;;;;;;2.15;1.40;;;;;;;;;;5009506;28;20026;-64
2022/01/19 09:48:22;;;;;;;2.55;1.27;;;;;;;;;;5029115;28;20080;-62
2022/01/19 09:50:47;;;;;;;2.55;1.10;;;;;;;;;;5029210;28;20024;-63
2022/01/19 09:53:13;;;;;;;3.63;1.30;;;;;;;;;;5022265;28;20456;-65
2022/01/19 09:55:38;;;;;;;3.13;1.30;;;;;;;;;;5030885;28;20272;-65
2022/01/19 09:58:04;;;;;;;4.50;1.50;;;;;;;;;;5029030;28;20025;-66
2022/01/19 10:00:29;;;;;;;2.75;1.20;;;;;;;;;;5034571;28;20075;-67
2022/01/19 10:03:14;;;;;;;3.55;1.20;;;;;;;;;;5030311;28;20029;-65
2022/01/19 10:05:55;;;;;;;2.78;1.00;;;;;;;;;;5036817;28;20051;-62
2022/01/19 10:08:30;;;;;;;2.42;1.40;;;;;;;;;;5028345;28;20037;-61
2022/01/19 10:11:16;;;;;;;3.00;1.27;;;;;;;;;;5022161;28;20171;-64
2022/01/19 10:16:59;;;;;;;1.90;1.10;;;;;;;;;;5044295;28;20118;-66
2022/01/19 10:19:24;;;;;;;2.35;1.33;;;;;;;;;;5036477;28;20034;-67
2022/01/19 10:22:05;;;;;;;2.42;1.13;;;;;;;;;;5042998;28;20464;-65
2022/01/19 10:24:39;;;;;;;2.63;1.40;;;;;;;;;;5043959;28;20082;-65
2022/01/19 10:27:22;;;;;;;2.88;1.38;;;;;;;;;;5025102;28;20549;-62
2022/01/19 10:30:11;;;;;;;1.90;1.15;;;;;;;;;;5043855;28;20481;-64
2022/01/19 10:32:43;;;;;;;1.77;1.10;;;;;;;;;;5043120;28;20454;-63
2022/01/19 10:35:15;;;;;;;2.30;1.23;;;;;;;;;;5043745;28;20031;-62
2022/01/19 10:37:40;;;;;;;3.60;1.55;;;;;;;;;;5044005;28;20021;-63
2022/01/19 10:40:06;;;;;;;3.63;1.43;;;;;;;;;;5043509;28;20556;-61
2022/01/19 10:42:32;;;;;;;3.03;1.40;;;;;;;;;;5043695;28;20683;-64
2022/01/19 10:45:03;;;;;;;3.45;1.38;;;;;;;;;;5043727;28;20047;-62
2022/01/19 10:47:38;;;;;;;3.80;1.50;;;;;;;;;;5026378;28;20036;-62
2022/01/19 10:50:03;;;;;;;3.20;1.40;;;;;;;;;;5029848;28;20108;-61
2022/01/19 10:52:31;;;;;;;3.55;1.48;;;;;;;;;;5039132;28;20542;-63
2022/01/19 10:54:57;;;;;;;4.05;1.60;;;;;;;;;;5043394;28;20067;-62
2022/01/19 10:57:22;;;;;;;3.30;1.50;;;;;;;;;;5025271;28;20067;-64
2022/01/19 10:59:50;;;;;;;6.22;2.10;;;;;;;;;;5043453;28;20593;-62
2022/01/19 11:02:15;;;;;;;5.68;1.65;;;;;;;;;;5042675;28;20071;-62
2022/01/19 11:04:42;;;;;;;3.20;1.50;;;;;;;;;;5042737;28;20087;-62
2022/01/19 11:07:08;;;;;;;4.72;1.45;;;;;;;;;;5042979;28;20283;-64
2022/01/19 11:09:35;;;;;;;4.63;1.50;;;;;;;;;;5043313;28;20084;-62
2022/01/19 11:12:04;;;;;;;5.00;1.88;;;;;;;;;;5043103;28;20082;-62
2022/01/19 11:14:29;;;;;;;2.72;1.23;;;;;;;;;;5043285;28;20025;-63
2022/01/19 11:16:55;;;;;;;2.67;1.58;;;;;;;;;;5042667;28;20492;-65
2022/01/19 11:19:20;;;;;;;3.47;1.43;;;;;;;;;;5043271;28;20025;-61
2022/01/19 11:22:04;;;;;;;3.50;1.65;;;;;;;;;;5037589;28;20275;-64
2022/01/19 11:24:48;;;;;;;3.13;1.60;;;;;;;;;;5030615;28;20129;-59
2022/01/19 11:27:14;;;;;;;3.35;1.70;;;;;;;;;;5029353;28;20112;-59
2022/01/19 11:29:40;;;;;;;4.75;1.60;;;;;;;;;;5033309;28;20117;-60
2022/01/19 11:32:18;;;;;;;3.30;1.90;;;;;;;;;;5019988;28;20511;-60
2022/01/19 11:34:49;;;;;;;3.47;1.67;;;;;;;;;;5037285;28;20060;-59
2022/01/19 11:37:15;;;;;;;4.22;2.05;;;;;;;;;;5039120;28;20025;-61
2022/01/19 11:39:59;;;;;;;4.53;1.55;;;;;;;;;;5036504;28;20025;-60
2022/01/19 11:42:25;;;;;;;4.45;1.60;;;;;;;;;;5039841;28;20026;-61
2022/01/19 11:44:51;;;;;;;3.77;1.60;;;;;;;;;;5032699;28;20025;-60
2022/01/19 11:47:28;;;;;;;2.65;1.60;;;;;;;;;;5031478;28;20279;-63
2022/01/19 11:49:53;;;;;;;3.33;1.50;;;;;;;;;;5031286;28;20040;-63
2022/01/19 11:52:19;;;;;;;4.55;1.88;;;;;;;;;;5036326;28;20028;-62
2022/01/19 11:54:45;;;;;;;2.70;1.55;;;;;;;;;;5038528;28;20552;-64
2022/01/19 11:57:11;;;;;;;2.50;1.42;;;;;;;;;;5041746;28;20029;-61
2022/01/19 11:59:45;;;;;;;2.40;1.45;;;;;;;;;;5023687;28;20487;-63
2022/01/19 12:02:28;;;;;;;4.13;1.60;;;;;;;;;;5035513;28;20032;-62
2022/01/19 12:04:59;;;;;;;3.90;1.63;;;;;;;;;;5038883;28;20045;-58
2022/01/19 12:07:33;;;;;;;4.88;1.60;;;;;;;;;;5032338;28;20024;-63
2022/01/19 12:09:58;;;;;;;2.63;1.45;;;;;;;;;;5039850;28;20029;-62
2022/01/19 12:12:27;;;;;;;3.00;1.67;;;;;;;;;;5041358;28;20078;-61
2022/01/19 12:14:53;;;;;;;3.45;1.52;;;;;;;;;;5039774;28;20028;-61
2022/01/19 12:17:36;;;;;;;3.55;1.70;;;;;;;;;;5039500;28;20482;-61
2022/01/19 12:20:01;;;;;;;3.45;1.75;;;;;;;;;;5031196;28;20075;-61
2022/01/19 12:22:28;;;;;;;3.53;1.50;;;;;;;;;;5037458;28;20037;-61
2022/01/19 12:25:00;;;;;;;3.58;1.70;;;;;;;;;;5040765;28;20047;-62
2022/01/19 12:27:27;;;;;;;3.13;1.52;;;;;;;;;;5021456;28;20491;-61
2022/01/19 12:30:13;;;;;;;2.08;1.35;;;;;;;;;;5041290;28;20036;-61
2022/01/19 12:32:44;;;;;;;3.22;1.90;;;;;;;;;;5040732;28;20040;-61
2022/01/19 12:35:15;;;;;;;3.47;1.77;;;;;;;;;;5040628;28;20076;-61
2022/01/19 12:37:42;;;;;;;3.47;1.83;;;;;;;;;;5037899;28;20025;-62
2022/01/19 12:40:16;;;;;;;4.32;1.65;;;;;;;;;;5034298;28;20025;-62
2022/01/19 12:42:42;;;;;;;3.03;1.85;;;;;;;;;;5027179;28;20021;-62
2022/01/19 12:45:26;;;;;;;4.25;1.75;;;;;;;;;;5041858;28;20505;-62
2022/01/19 12:48:04;;;;;;;3.33;2.08;;;;;;;;;;5042094;28;20029;-61
2022/01/19 12:50:29;;;;;;;3.67;2.17;;;;;;;;;;5042080;28;20013;-63
2022/01/19 12:52:54;;;;;;;3.60;1.55;;;;;;;;;;5041785;28;20025;-61
2022/01/19 12:55:21;;;;;;;2.83;1.63;;;;;;;;;;5041516;28;20037;-61
2022/01/19 12:57:46;;;;;;;4.13;1.75;;;;;;;;;;5041798;28;20800;-62
2022/01/19 13:00:13;;;;;;;4.18;1.63;;;;;;;;;;5041984;28;20359;-61
2022/01/19 13:02:38;;;;;;;4.15;2.05;;;;;;;;;;5042450;28;20549;-61
2022/01/19 13:05:04;;;;;;;4.90;1.70;;;;;;;;;;5044517;28;20444;-60
2022/01/19 13:07:31;;;;;;;2.30;1.40;;;;;;;;;;5042388;28;20362;-62
2022/01/19 13:09:59;;;;;;;4.47;1.95;;;;;;;;;;5019624;28;20623;-62
2022/01/19 13:12:36;;;;;;;3.33;1.60;;;;;;;;;;5032361;28;20017;-61
2022/01/19 13:15:01;;;;;;;3.38;1.70;;;;;;;;;;5041721;28;20334;-61
2022/01/19 13:17:38;;;;;;;3.50;1.87;;;;;;;;;;5041841;28;20486;-62
2022/01/19 13:20:10;;;;;;;3.33;1.70;;;;;;;;;;5024599;28;20109;-60
2022/01/19 13:22:42;;;;;;;2.92;1.73;;;;;;;;;;5006556;28;20021;-61
2022/01/19 13:25:13;;;;;;;3.38;2.22;;;;;;;;;;5004942;28;20034;-61
2022/01/19 13:27:45;;;;;;;4.93;1.90;;;;;;;;;;5019140;28;20029;-61
2022/01/19 13:30:11;;;;;;;3.35;1.90;;;;;;;;;;5015413;28;20117;-60
2022/01/19 13:32:38;;;;;;;4.55;1.83;;;;;;;;;;5026978;28;20324;-61
2022/01/19 13:35:04;;;;;;;4.30;1.83;;;;;;;;;;5038586;28;20032;-59
2022/01/19 13:37:35;;;;;;;2.80;1.77;;;;;;;;;;5040877;28;20029;-60
2022/01/19 13:40:02;;;;;;;3.08;1.80;;;;;;;;;;5029248;28;20551;-59
2022/01/19 13:42:34;;;;;;;3.00;1.88;;;;;;;;;;5029743;28;20038;-58
2022/01/19 13:45:08;;;;;;;3.78;1.80;;;;;;;;;;5039792;28;20032;-59
2022/01/19 13:47:33;;;;;;;3.20;1.95;;;;;;;;;;5042937;28;20028;-59
2022/01/19 13:49:59;;;;;;;4.05;1.95;;;;;;;;;;5027649;28;20042;-58
2022/01/19 13:52:24;;;;;;;3.33;1.77;;;;;;;;;;5002889;28;20512;-58
2022/01/19 13:54:49;;;;;;;4.30;2.20;;;;;;;;;;5032268;28;20499;-59
2022/01/19 13:57:24;;;;;;;3.28;1.73;;;;;;;;;;5044070;28;20028;-59
2022/01/19 13:59:49;;;;;;;4.20;1.98;;;;;;;;;;5033941;28;20021;-60
2022/01/19 14:02:17;;;;;;;3.60;1.70;;;;;;;;;;5037149;28;20029;-61
2022/01/19 14:04:49;;;;;;;3.78;2.20;;;;;;;;;;5043299;28;20283;-59
2022/01/19 14:07:16;;;;;;;3.63;2.00;;;;;;;;;;5043614;28;20047;-59
2022/01/19 14:09:41;;;;;;;3.83;2.25;;;;;;;;;;5026882;28;20026;-60
2022/01/19 14:12:08;;;;;;;4.13;2.20;;;;;;;;;;5016394;28;20091;-59
2022/01/19 14:14:42;;;;;;;3.58;1.90;;;;;;;;;;5023648;28;20450;-58
2022/01/19 14:17:09;;;;;;;4.13;2.03;;;;;;;;;;5023470;28;20035;-60
2022/01/19 14:19:44;;;;;;;4.05;1.92;;;;;;;;;;5015699;28;20033;-60
2022/01/19 14:22:21;;;;;;;3.63;2.10;;;;;;;;;;5016144;28;20510;-60
2022/01/19 14:24:47;;;;;;;4.00;1.85;;;;;;;;;;5023656;28;20527;-60
2022/01/19 14:27:16;;;;;;;2.92;1.80;;;;;;;;;;5023449;28;20030;-59
2022/01/19 14:29:54;;;;;;;3.30;1.80;;;;;;;;;;5023457;28;20025;-59
2022/01/19 14:32:19;;;;;;;3.30;1.98;;;;;;;;;;5022855;28;20021;-59
2022/01/19 14:34:45;;;;;;;3.03;1.83;;;;;;;;;;5023379;28;20025;-59
2022/01/19 14:37:17;;;;;;;3.60;2.00;;;;;;;;;;5023524;28;20025;-60
2022/01/19 14:39:50;;;;;;;4.03;2.10;;;;;;;;;;5015567;28;20026;-61
2022/01/19 14:42:16;;;;;;;7.72;3.47;;;;;;;;;;5029436;28;20017;-59
2022/01/19 14:44:47;;;;;;;4.55;2.15;;;;;;;;;;5043239;28;20021;-58
2022/01/19 14:47:31;;;;;;;5.10;2.20;;;;;;;;;;5043367;28;20029;-58
2022/01/19 14:49:56;;;;;;;4.15;2.20;;;;;;;;;;5013670;28;20108;-60
2022/01/19 14:52:21;;;;;;;5.47;2.30;;;;;;;;;;5005616;28;20590;-59
2022/01/19 14:54:46;;;;;;;3.83;2.10;;;;;;;;;;5022897;28;20488;-58
2022/01/19 14:57:12;;;;;;;4.88;2.13;;;;;;;;;;5022747;28;20788;-59
2022/01/19 14:59:37;;;;;;;4.25;1.98;;;;;;;;;;5015976;28;20030;-59
2022/01/19 15:02:03;;;;;;;4.30;1.98;;;;;;;;;;5025262;28;20418;-59
2022/01/19 15:04:28;;;;;;;5.40;2.03;;;;;;;;;;5042766;28;20056;-59
2022/01/19 15:06:58;;;;;;;3.93;2.30;;;;;;;;;;5043184;28;20461;-59
2022/01/19 15:09:24;;;;;;;3.55;2.00;;;;;;;;;;5038643;28;20300;-59
2022/01/19 15:11:49;;;;;;;3.20;1.88;;;;;;;;;;5021957;28;20033;-59
2022/01/19 15:14:15;;;;;;;3.65;2.03;;;;;;;;;;5030218;28;20435;-59
2022/01/19 15:16:40;;;;;;;2.88;1.88;;;;;;;;;;5030336;28;20037;-59
2022/01/19 15:19:05;;;;;;;4.55;1.90;;;;;;;;;;5026873;28;20022;-59
2022/01/19 15:21:31;;;;;;;4.95;2.10;;;;;;;;;;5010939;28;20033;-58
2022/01/19 15:23:59;;;;;;;3.55;1.80;;;;;;;;;;5023557;28;20146;-58
2022/01/19 15:26:24;;;;;;;4.97;2.70;;;;;;;;;;5023525;28;20518;-58
2022/01/19 15:28:49;;;;;;;3.53;1.97;;;;;;;;;;5022870;28;20026;-58
2022/01/19 15:31:15;;;;;;;3.83;1.90;;;;;;;;;;5022375;28;20267;-58
2022/01/19 15:33:40;;;;;;;3.63;1.83;;;;;;;;;;5022557;28;20438;-59
2022/01/19 15:36:07;;;;;;;4.27;1.80;;;;;;;;;;5022422;28;20044;-59
2022/01/19 15:38:33;;;;;;;4.65;2.10;;;;;;;;;;5022505;28;20773;-58
2022/01/19 15:40:58;;;;;;;4.05;2.08;;;;;;;;;;5005934;28;20092;-57
2022/01/19 15:43:24;;;;;;;4.70;2.50;;;;;;;;;;5001213;28;20022;-58
2022/01/19 15:45:49;;;;;;;5.25;2.05;;;;;;;;;;5011393;28;20337;-58
2022/01/19 15:48:16;;;;;;;3.38;2.17;;;;;;;;;;5022309;28;20024;-59
2022/01/19 15:50:43;;;;;;;4.28;2.40;;;;;;;;;;5007314;28;20112;-58
2022/01/19 15:53:08;;;;;;;4.38;2.17;;;;;;;;;;5021016;28;20105;-59
2022/01/19 15:55:33;;;;;;;4.33;2.30;;;;;;;;;;5021766;28;20590;-58
2022/01/19 15:57:58;;;;;;;3.30;2.10;;;;;;;;;;5021893;28;20275;-59
2022/01/19 16:00:25;;;;;;;3.63;2.07;;;;;;;;;;5009179;28;20264;-58
2022/01/19 16:02:50;;;;;;;3.03;2.30;;;;;;;;;;5000983;28;20353;-58
2022/01/19 16:05:16;;;;;;;3.67;1.88;;;;;;;;;;5028208;28;20029;-58
2022/01/19 16:07:41;;;;;;;3.80;2.20;;;;;;;;;;5041863;28;20040;-59